Time;durP1;ratioP1;P1;durP2;ratioP2;P2;SDS_P1;SDS_P2;PMS_P1;PMS_P2;Temp;Humidity;BMP_temperature;BMP_pressure;BME280_temperature;BME280_humidity;BME280_pressure;Samples;Min_cycle;Max_cycle;Signal;HPM_P1;HPM_P2
2022/08/05 00:01:29;;;;;;;14.10;5.55;;;19.60;99.90;;;;;;5046526;28;25080;-72
2022/08/05 00:03:55;;;;;;;13.98;5.45;;;19.60;99.90;;;;;;5054165;28;25138;-75
2022/08/05 00:06:20;;;;;;;14.27;5.10;;;19.70;99.90;;;;;;5053725;28;25120;-75
2022/08/05 00:08:46;;;;;;;13.73;5.65;;;19.60;99.90;;;;;;5037570;28;25069;-75
2022/08/05 00:11:13;;;;;;;17.30;6.70;;;19.50;99.90;;;;;;5038540;28;25069;-74
2022/08/05 00:13:41;;;;;;;15.18;5.90;;;19.60;99.90;;;;;;5046565;28;25162;-73
2022/08/05 00:16:09;;;;;;;10.15;5.30;;;19.60;99.90;;;;;;5054432;28;25063;-74
2022/08/05 00:18:36;;;;;;;16.38;6.07;;;19.60;99.90;;;;;;5043904;28;25105;-74
2022/08/05 00:21:02;;;;;;;17.55;7.28;;;19.60;99.90;;;;;;5037331;28;25065;-73
2022/08/05 00:23:28;;;;;;;10.75;6.65;;;19.50;99.90;;;;;;5048237;28;25069;-73
2022/08/05 00:25:53;;;;;;;15.52;7.88;;;19.50;99.90;;;;;;5054022;28;25113;-74
2022/08/05 00:28:19;;;;;;;17.83;7.88;;;19.50;99.90;;;;;;5048475;28;25049;-74
2022/08/05 00:30:45;;;;;;;16.35;7.20;;;19.40;99.90;;;;;;5052007;28;25052;-74
2022/08/05 00:33:10;;;;;;;12.38;6.90;;;19.50;99.90;;;;;;5042911;28;25130;-74
2022/08/05 00:35:36;;;;;;;14.27;7.38;;;19.60;99.90;;;;;;5053015;28;25071;-74
2022/08/05 00:38:02;;;;;;;15.93;6.57;;;19.50;99.90;;;;;;5047678;28;25072;-74
2022/08/05 00:40:27;;;;;;;17.17;7.22;;;19.50;99.90;;;;;;5044228;28;25069;-76
2022/08/05 00:42:53;;;;;;;16.27;6.78;;;19.60;99.90;;;;;;5040572;28;25135;-74
2022/08/05 00:45:19;;;;;;;12.23;6.45;;;19.50;99.90;;;;;;5044415;28;25068;-73
2022/08/05 00:47:45;;;;;;;15.20;6.65;;;19.60;99.90;;;;;;5047619;28;25075;-73
2022/08/05 00:50:10;;;;;;;12.90;6.43;;;19.50;99.90;;;;;;5045549;28;25072;-73
2022/08/05 00:52:36;;;;;;;16.50;8.05;;;19.60;99.90;;;;;;5041012;28;25157;-73
2022/08/05 00:55:03;;;;;;;19.08;7.70;;;19.60;99.90;;;;;;5043781;28;25116;-74
2022/08/05 00:57:28;;;;;;;15.88;7.30;;;19.50;99.90;;;;;;5035552;28;25093;-75
2022/08/05 00:59:54;;;;;;;16.65;6.78;;;19.40;99.90;;;;;;5039101;28;25137;-74
2022/08/05 01:02:19;;;;;;;13.73;5.97;;;19.40;99.90;;;;;;5030906;28;25086;-74
2022/08/05 01:04:45;;;;;;;14.52;6.80;;;19.40;99.90;;;;;;5034299;28;25143;-73
2022/08/05 01:07:10;;;;;;;12.02;5.38;;;19.50;99.90;;;;;;5029363;28;25153;-74
2022/08/05 01:09:36;;;;;;;11.40;6.68;;;19.50;99.90;;;;;;5040416;28;25089;-73
2022/08/05 01:12:07;;;;;;;15.07;6.78;;;19.40;99.90;;;;;;5035175;28;25162;-73
2022/08/05 01:15:00;;;;;;;12.30;5.67;;;19.30;99.90;;;;;;5040635;28;25095;-74
2022/08/05 01:17:28;;;;;;;;;;;19.40;99.90;;;;;;5041571;28;25115;-74
2022/08/05 01:19:53;;;;;;;12.50;6.22;;;19.50;99.90;;;;;;5035570;28;25082;-74
2022/08/05 01:22:30;;;;;;;14.93;6.50;;;19.40;99.90;;;;;;5041405;28;25050;-76
2022/08/05 01:25:24;;;;;;;15.00;6.75;;;19.40;99.90;;;;;;5033476;28;25060;-75
2022/08/05 01:28:20;;;;;;;20.58;7.38;;;19.30;99.90;;;;;;5051442;28;25064;-74
2022/08/05 01:31:14;;;;;;;12.30;6.15;;;19.40;99.90;;;;;;5045389;28;25139;-73
2022/08/05 01:34:03;;;;;;;12.35;5.97;;;19.40;99.90;;;;;;5038654;28;25066;-74
2022/08/05 01:36:34;;;;;;;10.68;5.60;;;19.40;99.90;;;;;;5035098;28;25099;-76
2022/08/05 01:39:01;;;;;;;12.50;6.00;;;19.30;99.90;;;;;;5043403;28;25053;-73
2022/08/05 01:41:31;;;;;;;13.68;5.28;;;19.20;99.90;;;;;;5050054;28;25053;-75
2022/08/05 01:43:57;;;;;;;14.50;5.63;;;19.20;99.90;;;;;;5036293;28;25058;-73
2022/08/05 01:46:24;;;;;;;12.50;6.18;;;19.20;99.90;;;;;;5039908;28;25099;-72
2022/08/05 01:48:52;;;;;;;12.15;6.13;;;19.10;99.90;;;;;;5045861;28;25144;-74
2022/08/05 01:51:18;;;;;;;14.27;5.10;;;19.10;99.90;;;;;;5046453;28;25175;-76
2022/08/05 01:53:48;;;;;;;10.38;4.95;;;19.20;99.90;;;;;;5043489;28;25152;-73
2022/08/05 01:56:16;;;;;;;11.43;5.15;;;19.10;99.90;;;;;;5037475;28;25140;-75
2022/08/05 01:58:42;;;;;;;13.13;5.13;;;19.10;99.90;;;;;;5044802;28;25079;-73
2022/08/05 02:01:10;;;;;;;14.57;5.40;;;19.10;99.90;;;;;;5041964;28;25170;-74
2022/08/05 02:03:40;;;;;;;11.63;5.30;;;19.10;99.90;;;;;;5045752;28;25107;-75
2022/08/05 02:06:06;;;;;;;16.35;6.70;;;19.10;99.90;;;;;;5042131;28;25057;-75
2022/08/05 02:08:33;;;;;;;14.10;6.95;;;19.10;99.90;;;;;;5041345;28;25067;-72
2022/08/05 02:11:07;;;;;;;16.67;6.30;;;19.00;99.90;;;;;;5040695;28;25068;-74
2022/08/05 02:13:45;;;;;;;11.88;5.63;;;19.00;99.90;;;;;;5037059;28;25098;-74
2022/08/05 02:16:20;;;;;;;8.85;5.95;;;19.00;99.90;;;;;;5041846;28;25085;-75
2022/08/05 02:18:59;;;;;;;13.65;7.07;;;19.00;99.90;;;;;;5032054;28;25060;-75
2022/08/05 02:21:33;;;;;;;13.30;6.90;;;18.90;99.90;;;;;;5035389;28;25050;-74
2022/08/05 02:24:07;;;;;;;16.75;7.07;;;18.90;99.90;;;;;;5035879;28;25175;-74
2022/08/05 02:26:38;;;;;;;13.80;8.30;;;18.90;99.90;;;;;;5043299;28;25063;-76
2022/08/05 02:29:06;;;;;;;13.15;6.70;;;18.90;99.90;;;;;;5046537;28;25066;-74
2022/08/05 02:31:35;;;;;;;18.83;7.90;;;18.90;99.90;;;;;;5037104;28;25084;-75
2022/08/05 02:34:08;;;;;;;12.45;8.30;;;19.00;99.90;;;;;;5042653;28;25069;-74
2022/08/05 02:36:35;;;;;;;16.13;8.60;;;19.00;99.90;;;;;;5047239;28;25082;-75
2022/08/05 02:39:04;;;;;;;14.55;8.00;;;19.00;99.90;;;;;;5052423;28;25087;-73
2022/08/05 02:41:32;;;;;;;16.58;8.35;;;19.00;99.90;;;;;;5040750;28;25055;-74
2022/08/05 02:44:00;;;;;;;17.42;7.75;;;19.00;99.90;;;;;;5045594;28;25061;-74
2022/08/05 02:46:27;;;;;;;17.15;7.55;;;19.10;99.90;;;;;;5053339;28;25063;-76
2022/08/05 02:48:54;;;;;;;12.82;7.60;;;19.00;99.90;;;;;;5045163;28;25072;-76
2022/08/05 02:51:20;;;;;;;17.13;7.93;;;19.00;99.90;;;;;;5058447;28;25066;-73
2022/08/05 02:53:47;;;;;;;13.55;6.88;;;18.90;99.90;;;;;;5044443;28;25090;-73
2022/08/05 02:56:13;;;;;;;10.70;6.45;;;19.00;99.90;;;;;;5044730;28;25053;-75
2022/08/05 02:58:40;;;;;;;12.77;6.57;;;18.90;99.90;;;;;;5047590;28;25049;-74
2022/08/05 03:01:08;;;;;;;9.68;6.32;;;19.00;99.90;;;;;;5037399;28;25091;-76
2022/08/05 03:03:40;;;;;;;7.82;6.30;;;18.90;99.90;;;;;;5043288;28;25094;-75
2022/08/05 03:06:08;;;;;;;10.43;5.55;;;18.80;99.90;;;;;;5041848;28;25095;-75
2022/08/05 03:08:36;;;;;;;12.40;5.95;;;18.70;99.90;;;;;;5038195;28;25057;-74
2022/08/05 03:11:02;;;;;;;9.75;5.07;;;18.70;99.90;;;;;;5046892;28;25076;-74
2022/08/05 03:13:27;;;;;;;8.15;5.18;;;18.80;99.90;;;;;;5047347;28;25125;-75
2022/08/05 03:15:53;;;;;;;11.70;5.05;;;18.80;99.90;;;;;;5041820;28;25090;-74
2022/08/05 03:18:18;;;;;;;8.88;4.65;;;18.70;99.90;;;;;;5038050;28;25059;-76
2022/08/05 03:20:44;;;;;;;9.88;4.43;;;18.60;99.90;;;;;;5038064;28;25075;-75
2022/08/05 03:23:10;;;;;;;10.45;4.68;;;18.70;99.90;;;;;;5034149;28;25143;-74
2022/08/05 03:25:37;;;;;;;11.52;4.72;;;18.70;99.90;;;;;;5053470;28;25063;-74
2022/08/05 03:28:06;;;;;;;11.50;4.90;;;18.70;99.90;;;;;;5035523;28;25094;-74
2022/08/05 03:30:32;;;;;;;12.43;4.53;;;18.80;99.90;;;;;;5035711;28;25071;-73
2022/08/05 03:32:59;;;;;;;10.40;4.80;;;18.70;99.90;;;;;;5035184;28;25061;-73
2022/08/05 03:35:26;;;;;;;7.85;4.10;;;18.70;99.90;;;;;;5040623;28;25336;-75
2022/08/05 03:37:56;;;;;;;11.32;4.72;;;18.60;99.90;;;;;;5043611;28;25131;-74
2022/08/05 03:40:22;;;;;;;8.15;4.20;;;18.50;99.90;;;;;;5039892;28;25141;-74
2022/08/05 03:42:48;;;;;;;6.05;4.07;;;18.60;99.90;;;;;;5048074;28;25108;-76
2022/08/05 03:45:13;;;;;;;7.15;3.75;;;18.70;99.90;;;;;;5042566;28;25081;-73
2022/08/05 03:47:39;;;;;;;9.45;3.47;;;18.70;99.90;;;;;;5041731;28;25055;-74
2022/08/05 03:50:04;;;;;;;6.75;3.60;;;18.60;99.90;;;;;;5034585;28;25082;-75
2022/08/05 03:52:35;;;;;;;7.85;4.20;;;18.50;99.90;;;;;;5036698;28;25088;-74
2022/08/05 03:55:06;;;;;;;8.05;3.78;;;18.50;99.90;;;;;;5043106;28;25137;-73
2022/08/05 03:57:35;;;;;;;8.40;3.78;;;18.60;99.90;;;;;;5048803;28;25152;-75
2022/08/05 04:00:12;;;;;;;9.55;4.00;;;18.50;99.90;;;;;;5060471;28;25083;-76
2022/08/05 04:02:40;;;;;;;8.13;3.95;;;18.60;99.90;;;;;;5070721;28;25062;-77
2022/08/05 04:05:08;;;;;;;11.63;4.40;;;18.50;99.90;;;;;;5051958;28;25068;-74
2022/08/05 04:07:34;;;;;;;7.25;3.45;;;18.50;99.90;;;;;;5053893;28;25071;-75
2022/08/05 04:10:00;;;;;;;12.80;4.13;;;18.50;99.90;;;;;;5040829;28;25128;-75
2022/08/05 04:12:27;;;;;;;13.70;4.57;;;18.50;99.90;;;;;;5040778;28;25064;-74
2022/08/05 04:14:53;;;;;;;9.52;4.25;;;18.50;99.90;;;;;;5034176;28;25064;-73
2022/08/05 04:17:19;;;;;;;8.85;4.20;;;18.40;99.90;;;;;;5038250;28;25072;-75
2022/08/05 04:19:46;;;;;;;12.25;4.32;;;18.40;99.90;;;;;;5044590;28;25053;-74
2022/08/05 04:22:12;;;;;;;9.63;3.80;;;18.40;99.90;;;;;;5044179;28;25066;-75
2022/08/05 04:24:42;;;;;;;9.43;3.97;;;18.30;99.90;;;;;;5036752;28;25069;-74
2022/08/05 04:27:08;;;;;;;8.45;3.55;;;18.30;99.90;;;;;;5035395;28;25098;-75
2022/08/05 04:29:34;;;;;;;9.50;3.10;;;18.30;99.90;;;;;;5035478;28;25127;-74
2022/08/05 04:32:00;;;;;;;9.63;4.30;;;18.30;99.90;;;;;;5035580;28;25109;-73
2022/08/05 04:34:25;;;;;;;9.15;3.65;;;18.20;99.90;;;;;;5031976;28;25104;-74
2022/08/05 04:36:51;;;;;;;7.80;3.35;;;18.10;99.90;;;;;;5040841;28;25058;-74
2022/08/05 04:39:18;;;;;;;8.52;3.55;;;18.10;99.90;;;;;;5041547;28;25164;-75
2022/08/05 04:41:43;;;;;;;6.80;3.30;;;18.10;99.90;;;;;;5026954;28;25074;-76
2022/08/05 04:44:09;;;;;;;4.45;3.33;;;18.20;99.90;;;;;;5032371;28;25118;-74
2022/08/05 04:46:34;;;;;;;7.78;3.50;;;18.10;99.90;;;;;;5031247;28;25102;-73
2022/08/05 04:49:00;;;;;;;6.93;3.20;;;18.10;99.90;;;;;;5023263;28;25065;-74
2022/08/05 04:51:26;;;;;;;4.10;2.78;;;18.20;99.90;;;;;;5036319;28;25112;-75
2022/08/05 04:53:51;;;;;;;8.45;3.55;;;18.10;99.90;;;;;;5037741;28;25050;-74
2022/08/05 04:56:17;;;;;;;6.65;3.05;;;18.10;99.90;;;;;;5033890;28;25138;-74
2022/08/05 04:58:43;;;;;;;3.33;2.88;;;18.10;99.90;;;;;;5040921;28;25061;-75
2022/08/05 05:01:08;;;;;;;6.25;3.30;;;18.00;99.90;;;;;;5034324;28;25071;-76
2022/08/05 05:03:34;;;;;;;4.03;3.05;;;18.00;99.90;;;;;;5038597;28;25129;-75
2022/08/05 05:05:59;;;;;;;7.63;3.17;;;18.00;99.90;;;;;;5036857;28;25074;-75
2022/08/05 05:08:25;;;;;;;6.85;2.85;;;18.00;99.90;;;;;;5031410;28;25110;-75
2022/08/05 05:10:50;;;;;;;9.55;3.38;;;18.00;99.90;;;;;;5037184;28;25095;-76
2022/08/05 05:13:17;;;;;;;8.82;3.25;;;18.00;99.90;;;;;;5042370;28;25074;-75
2022/08/05 05:15:44;;;;;;;6.03;3.20;;;17.90;99.90;;;;;;5035760;28;25070;-74
2022/08/05 05:18:13;;;;;;;7.85;2.80;;;18.00;99.90;;;;;;5032480;28;25107;-76
2022/08/05 05:20:39;;;;;;;7.00;3.13;;;18.00;99.90;;;;;;5041026;28;25079;-76
2022/08/05 05:23:04;;;;;;;6.38;4.32;;;17.90;99.90;;;;;;5045827;28;25116;-76
2022/08/05 05:25:30;;;;;;;9.48;4.25;;;17.90;99.90;;;;;;5043825;28;25100;-75
2022/08/05 05:27:56;;;;;;;5.43;2.90;;;18.10;99.90;;;;;;5035895;28;25064;-75
2022/08/05 05:30:22;;;;;;;8.10;2.90;;;18.10;99.90;;;;;;5039626;28;25104;-75
2022/08/05 05:32:48;;;;;;;7.32;3.17;;;18.00;99.90;;;;;;5040500;28;25101;-75
2022/08/05 05:35:15;;;;;;;4.97;2.90;;;18.00;99.90;;;;;;5044154;28;25068;-76
2022/08/05 05:37:50;;;;;;;6.55;3.20;;;18.10;99.90;;;;;;5036783;28;25052;-77
2022/08/05 05:40:18;;;;;;;7.30;3.30;;;18.10;99.90;;;;;;5043634;28;25066;-78
2022/08/05 05:42:45;;;;;;;7.93;3.47;;;18.00;99.90;;;;;;5041401;28;25058;-74
2022/08/05 05:45:11;;;;;;;7.03;2.92;;;18.10;99.90;;;;;;5045691;28;25168;-74
2022/08/05 05:47:36;;;;;;;5.13;2.67;;;18.10;99.90;;;;;;5052105;28;25109;-74
2022/08/05 05:50:03;;;;;;;6.22;2.63;;;18.00;99.90;;;;;;5054715;28;25145;-73
2022/08/05 05:52:29;;;;;;;5.13;2.53;;;18.00;99.90;;;;;;5058271;28;25067;-80
2022/08/05 05:54:59;;;;;;;5.25;2.65;;;18.00;99.90;;;;;;5051360;28;25069;-74
2022/08/05 05:57:24;;;;;;;3.95;2.67;;;18.10;99.90;;;;;;5045496;28;25090;-74
2022/08/05 05:59:50;;;;;;;6.63;2.40;;;18.20;99.90;;;;;;5053585;28;25082;-78
2022/08/05 06:02:16;;;;;;;3.65;2.03;;;18.20;99.90;;;;;;5052611;28;25057;-75
2022/08/05 06:04:41;;;;;;;5.05;2.75;;;18.20;99.90;;;;;;5042989;28;25056;-74
2022/08/05 06:07:07;;;;;;;7.05;2.00;;;18.30;99.90;;;;;;5055270;28;25069;-73
2022/08/05 06:09:32;;;;;;;6.13;2.45;;;18.30;99.90;;;;;;5041311;28;25074;-76
2022/08/05 06:11:58;;;;;;;6.72;2.17;;;18.40;99.90;;;;;;5048538;28;25075;-75
2022/08/05 06:14:23;;;;;;;3.03;1.77;;;18.40;99.90;;;;;;5051578;28;25156;-74
2022/08/05 06:16:49;;;;;;;6.03;1.70;;;18.40;99.90;;;;;;5048202;28;25136;-74
2022/08/05 06:19:14;;;;;;;2.53;1.67;;;18.50;99.90;;;;;;5040323;28;25381;-76
2022/08/05 06:21:40;;;;;;;4.30;1.55;;;18.60;99.90;;;;;;5054241;28;25062;-73
2022/08/05 06:24:06;;;;;;;7.82;2.20;;;18.50;99.90;;;;;;5051450;28;25056;-72
2022/08/05 06:26:32;;;;;;;4.38;1.90;;;18.60;99.90;;;;;;5047073;28;25078;-73
2022/08/05 06:28:57;;;;;;;3.95;1.52;;;18.70;99.90;;;;;;5058856;28;25076;-74
2022/08/05 06:31:23;;;;;;;5.57;1.58;;;19.00;99.90;;;;;;5050481;28;25164;-75
2022/08/05 06:33:49;;;;;;;5.30;1.35;;;19.10;99.90;;;;;;5043100;28;25055;-75
2022/08/05 06:36:15;;;;;;;5.65;1.38;;;19.10;99.90;;;;;;5048206;28;25074;-74
2022/08/05 06:38:40;;;;;;;3.88;1.35;;;18.80;99.90;;;;;;5045600;28;25073;-75
2022/08/05 06:41:06;;;;;;;4.65;1.23;;;18.80;99.90;;;;;;5048304;28;25075;-75
2022/08/05 06:43:31;;;;;;;5.80;1.70;;;18.80;99.90;;;;;;5041342;28;25060;-76
2022/08/05 06:45:57;;;;;;;4.88;1.48;;;18.70;99.90;;;;;;5046747;28;25152;-74
2022/08/05 06:48:22;;;;;;;5.03;1.90;;;18.70;99.90;;;;;;5046186;28;25143;-75
2022/08/05 06:50:48;;;;;;;2.08;1.15;;;18.70;99.90;;;;;;5042940;28;25057;-72
2022/08/05 06:53:14;;;;;;;1.55;1.20;;;18.70;99.90;;;;;;5049895;28;25127;-76
2022/08/05 06:55:40;;;;;;;2.65;1.38;;;18.80;99.90;;;;;;5042832;28;25113;-73
2022/08/05 06:58:06;;;;;;;8.57;1.63;;;18.60;99.90;;;;;;5048405;28;25057;-75
2022/08/05 07:00:32;;;;;;;5.68;1.80;;;18.90;99.90;;;;;;5054240;28;25160;-74
2022/08/05 07:02:58;;;;;;;6.18;1.40;;;19.00;99.90;;;;;;5038759;28;25090;-73
2022/08/05 07:05:24;;;;;;;10.60;1.92;;;19.20;99.90;;;;;;5046028;28;25098;-74
2022/08/05 07:07:50;;;;;;;5.05;1.55;;;19.30;99.90;;;;;;5045236;28;25083;-74
2022/08/05 07:10:15;;;;;;;6.22;1.73;;;19.40;99.90;;;;;;5050527;28;25071;-73
2022/08/05 07:18:09;;;;;;;3.00;1.10;;;19.60;99.90;;;;;;5039857;28;25157;-74
2022/08/05 07:20:35;;;;;;;2.78;1.00;;;19.60;99.90;;;;;;5037587;28;25054;-74
2022/08/05 07:23:01;;;;;;;5.13;1.05;;;19.70;99.90;;;;;;5041918;28;25061;-72
2022/08/05 07:25:26;;;;;;;1.55;0.80;;;19.80;99.90;;;;;;5042876;28;25056;-74
2022/08/05 07:27:53;;;;;;;2.20;0.80;;;20.10;99.90;;;;;;5046308;28;25063;-74
2022/08/05 07:30:19;;;;;;;3.05;1.00;;;20.20;99.90;;;;;;5054251;28;25067;-73
2022/08/05 07:32:45;;;;;;;3.00;0.95;;;20.00;99.90;;;;;;5053325;28;25089;-73
2022/08/05 07:35:11;;;;;;;3.25;0.70;;;20.10;99.90;;;;;;5051054;28;25083;-74
2022/08/05 07:37:38;;;;;;;4.00;1.00;;;20.10;99.90;;;;;;5043522;28;25108;-73
2022/08/05 07:40:04;;;;;;;3.13;0.80;;;20.10;99.90;;;;;;5049366;28;25051;-72
2022/08/05 07:42:30;;;;;;;0.98;0.70;;;20.10;99.90;;;;;;5055874;28;25062;-74
2022/08/05 07:44:55;;;;;;;2.03;0.82;;;20.20;99.90;;;;;;5046610;28;25054;-74
2022/08/05 07:47:21;;;;;;;2.70;0.98;;;20.40;99.90;;;;;;5055567;28;25048;-74
2022/08/05 07:49:47;;;;;;;4.28;1.00;;;20.70;99.90;;;;;;5043191;28;25128;-72
2022/08/05 07:52:12;;;;;;;2.38;1.38;;;21.20;99.90;;;;;;5046273;28;25052;-72
2022/08/05 07:54:38;;;;;;;2.28;0.70;;;21.50;99.90;;;;;;5042779;28;25062;-72
2022/08/05 07:57:04;;;;;;;2.17;0.45;;;20.90;99.90;;;;;;5043054;28;25050;-72
2022/08/05 07:59:29;;;;;;;1.75;0.80;;;20.80;99.90;;;;;;5039563;28;25096;-71
2022/08/05 08:01:55;;;;;;;4.85;0.77;;;21.00;99.90;;;;;;5044254;28;25081;-72
2022/08/05 08:04:21;;;;;;;6.30;0.95;;;21.20;99.90;;;;;;5044605;28;25142;-72
2022/08/05 08:06:46;;;;;;;3.47;0.68;;;20.70;99.90;;;;;;5050343;28;25052;-71
2022/08/05 08:09:12;;;;;;;1.65;0.65;;;20.60;99.90;;;;;;5035245;28;25076;-71
2022/08/05 08:11:38;;;;;;;3.00;0.80;;;20.40;99.90;;;;;;5041928;28;25066;-71
2022/08/05 08:14:03;;;;;;;6.75;0.75;;;20.50;99.90;;;;;;5041792;28;25066;-71
2022/08/05 08:16:29;;;;;;;1.67;0.65;;;20.50;99.90;;;;;;5053161;28;25117;-71
2022/08/05 08:18:54;;;;;;;3.58;0.90;;;20.60;99.90;;;;;;5038816;28;25082;-71
2022/08/05 08:21:20;;;;;;;1.27;0.70;;;20.80;99.90;;;;;;5050507;28;25059;-71
2022/08/05 08:23:46;;;;;;;5.93;1.13;;;21.20;99.90;;;;;;5054027;28;25141;-70
2022/08/05 08:26:12;;;;;;;1.25;0.70;;;21.00;99.90;;;;;;5053572;28;25085;-71
2022/08/05 08:28:37;;;;;;;2.95;0.80;;;20.80;99.90;;;;;;5042468;28;25086;-71
2022/08/05 08:31:04;;;;;;;0.77;0.47;;;20.60;99.90;;;;;;5047437;28;25067;-73
2022/08/05 08:33:30;;;;;;;4.88;0.73;;;20.60;99.90;;;;;;5042870;28;25073;-73
2022/08/05 08:35:55;;;;;;;0.75;0.60;;;20.80;99.90;;;;;;5048555;28;25072;-72
2022/08/05 08:38:21;;;;;;;2.35;1.15;;;21.00;99.90;;;;;;5038784;28;25075;-72
2022/08/05 08:40:48;;;;;;;2.63;1.20;;;21.40;99.90;;;;;;5039909;28;25084;-71
2022/08/05 08:43:15;;;;;;;5.00;0.93;;;21.50;99.90;;;;;;5044642;28;25058;-72
2022/08/05 08:45:42;;;;;;;4.40;1.00;;;21.60;99.90;;;;;;5039335;28;25070;-71
2022/08/05 08:48:11;;;;;;;5.78;1.30;;;21.50;99.90;;;;;;5047553;28;25062;-70
2022/08/05 08:50:41;;;;;;;2.67;0.80;;;21.50;99.90;;;;;;5032985;28;25120;-73
2022/08/05 08:53:09;;;;;;;1.85;0.95;;;21.30;99.90;;;;;;5048008;28;25060;-71
2022/08/05 08:55:35;;;;;;;2.33;0.80;;;20.80;99.90;;;;;;5051174;28;25054;-70
2022/08/05 08:58:01;;;;;;;4.15;1.17;;;20.70;99.90;;;;;;5034445;28;25130;-72
2022/08/05 09:00:27;;;;;;;4.97;1.40;;;20.80;99.90;;;;;;5051090;28;25140;-71
2022/08/05 09:02:53;;;;;;;6.38;1.10;;;20.80;99.90;;;;;;5036732;28;25147;-72
2022/08/05 09:05:19;;;;;;;2.15;0.80;;;20.90;99.90;;;;;;5045471;28;25058;-72
2022/08/05 09:07:45;;;;;;;1.58;0.73;;;21.10;99.90;;;;;;5036964;28;25084;-74
2022/08/05 09:10:11;;;;;;;4.40;0.93;;;21.30;99.90;;;;;;5046404;28;25134;-72
2022/08/05 09:12:37;;;;;;;4.90;0.80;;;21.10;99.90;;;;;;5045393;28;25139;-73
2022/08/05 09:15:05;;;;;;;2.03;1.10;;;20.90;99.90;;;;;;5058392;28;25084;-74
2022/08/05 09:17:31;;;;;;;3.75;1.08;;;20.70;99.90;;;;;;5067027;28;25081;-74
2022/08/05 09:20:01;;;;;;;4.78;0.73;;;20.50;99.90;;;;;;5069529;28;25107;-71
2022/08/05 09:22:26;;;;;;;4.90;0.80;;;20.50;99.90;;;;;;5064243;28;25069;-72
2022/08/05 09:24:59;;;;;;;4.28;0.88;;;20.40;99.90;;;;;;5070449;28;25062;-71
2022/08/05 09:27:31;;;;;;;2.83;0.77;;;20.50;99.90;;;;;;5066268;28;25052;-72
2022/08/05 09:29:57;;;;;;;;;;;20.50;99.90;;;;;;5065718;28;25070;-73
2022/08/05 09:32:34;;;;;;;3.05;0.98;;;20.30;99.90;;;;;;5059069;28;25062;-73
2022/08/05 09:35:07;;;;;;;1.60;0.82;;;20.40;99.90;;;;;;5044428;28;25078;-75
2022/08/05 09:37:33;;;;;;;1.83;0.47;;;20.20;99.90;;;;;;5052650;28;25077;-73
2022/08/05 09:39:59;;;;;;;3.10;0.60;;;20.20;99.90;;;;;;5053424;28;25076;-72
2022/08/05 09:42:25;;;;;;;5.47;1.30;;;20.20;99.90;;;;;;5062702;28;25074;-74
2022/08/05 09:44:52;;;;;;;0.55;0.43;;;20.00;99.90;;;;;;5059486;28;25043;-73
2022/08/05 09:47:24;;;;;;;3.25;0.80;;;20.10;99.90;;;;;;5058481;28;25157;-72
2022/08/05 09:49:54;;;;;;;3.08;0.52;;;20.10;99.90;;;;;;5049905;28;25069;-72
2022/08/05 09:52:34;;;;;;;1.65;0.70;;;20.20;99.90;;;;;;5061138;28;25045;-72
2022/08/05 09:55:11;;;;;;;3.10;0.60;;;20.10;99.90;;;;;;5056061;28;25061;-72
2022/08/05 09:57:41;;;;;;;2.70;0.80;;;20.00;99.90;;;;;;5067123;28;25074;-72
2022/08/05 10:00:16;;;;;;;5.63;1.13;;;20.00;99.90;;;;;;5061048;28;25055;-73
2022/08/05 10:02:48;;;;;;;7.65;1.00;;;19.90;99.90;;;;;;5053589;28;25071;-72
2022/08/05 10:05:22;;;;;;;1.50;0.60;;;19.90;99.90;;;;;;5073883;28;25067;-75
2022/08/05 10:07:56;;;;;;;4.65;0.65;;;19.70;99.90;;;;;;5062493;28;25165;-72
2022/08/05 10:10:35;;;;;;;2.88;0.80;;;19.50;99.90;;;;;;5059902;28;25066;-72
2022/08/05 10:13:04;;;;;;;3.05;0.80;;;19.60;99.90;;;;;;5046786;28;25064;-73
2022/08/05 10:15:35;;;;;;;4.38;0.50;;;19.70;99.90;;;;;;5054640;28;25176;-72
2022/08/05 10:18:06;;;;;;;3.85;0.95;;;19.70;99.90;;;;;;5059466;28;25073;-72
2022/08/05 10:20:33;;;;;;;1.63;0.60;;;19.70;99.90;;;;;;5060825;28;25089;-72
2022/08/05 10:22:59;;;;;;;3.83;0.68;;;19.80;99.90;;;;;;5051275;28;25048;-72
2022/08/05 10:25:25;;;;;;;2.15;0.63;;;19.90;99.90;;;;;;5053863;28;25062;-73
2022/08/05 10:27:52;;;;;;;1.50;0.60;;;20.00;99.90;;;;;;5063130;28;25046;-73
2022/08/05 10:30:19;;;;;;;2.28;0.68;;;19.90;99.90;;;;;;5055969;28;25063;-73
2022/08/05 10:32:46;;;;;;;2.08;0.68;;;20.00;99.90;;;;;;5047032;28;25149;-71
2022/08/05 10:35:12;;;;;;;2.75;0.70;;;20.00;99.90;;;;;;5055197;28;25115;-72
2022/08/05 10:37:38;;;;;;;3.08;0.50;;;19.90;99.90;;;;;;5058281;28;25071;-73
2022/08/05 10:40:13;;;;;;;2.35;0.57;;;19.90;99.90;;;;;;5061254;28;25070;-73
2022/08/05 10:42:45;;;;;;;3.17;0.90;;;19.90;99.90;;;;;;5066511;28;25065;-72
2022/08/05 10:45:12;;;;;;;2.55;0.40;;;19.90;99.90;;;;;;5049470;28;25096;-72
2022/08/05 10:47:43;;;;;;;4.50;0.50;;;20.10;99.90;;;;;;5049716;28;25053;-72
2022/08/05 10:50:12;;;;;;;0.88;0.50;;;20.40;99.90;;;;;;5050522;28;25050;-75
2022/08/05 10:52:45;;;;;;;5.10;0.70;;;20.50;99.90;;;;;;5052563;28;25106;-74
2022/08/05 10:55:13;;;;;;;0.90;0.52;;;20.60;99.90;;;;;;5053225;28;25067;-73
2022/08/05 10:57:43;;;;;;;1.25;0.60;;;20.80;99.90;;;;;;5055825;28;25090;-74
2022/08/05 11:00:11;;;;;;;4.35;0.70;;;20.90;99.90;;;;;;5053303;28;25082;-74
2022/08/05 11:02:37;;;;;;;1.52;0.57;;;20.80;99.90;;;;;;5038615;28;25068;-74
2022/08/05 11:05:05;;;;;;;1.65;0.60;;;21.10;99.90;;;;;;5050745;28;25061;-73
2022/08/05 11:07:31;;;;;;;2.08;0.52;;;21.00;99.90;;;;;;5054373;28;25118;-73
2022/08/05 11:10:00;;;;;;;2.60;0.60;;;21.60;99.90;;;;;;5049978;28;25103;-74
2022/08/05 11:12:43;;;;;;;3.17;0.60;;;21.70;99.90;;;;;;5061844;28;25090;-75
2022/08/05 11:15:14;;;;;;;;;;;22.20;99.90;;;;;;5048985;28;25071;-72
2022/08/05 11:17:41;;;;;;;2.30;0.50;;;21.90;99.90;;;;;;5057007;28;24074;-71
2022/08/05 11:20:28;;;;;;;3.08;0.50;;;21.70;99.90;;;;;;5054613;28;25054;-71
2022/08/05 11:22:53;;;;;;;3.35;0.57;;;21.50;99.90;;;;;;5051753;28;25069;-70
2022/08/05 11:25:37;;;;;;;3.05;0.77;;;21.20;97.40;;;;;;5049628;28;25152;-73
2022/08/05 11:28:11;;;;;;;1.50;0.40;;;21.40;90.70;;;;;;5052718;28;25063;-72
2022/08/05 11:30:55;;;;;;;1.60;0.60;;;21.50;90.90;;;;;;5054926;28;25062;-73
2022/08/05 11:33:46;;;;;;;4.40;0.60;;;21.60;91.90;;;;;;5063109;28;25089;-73
2022/08/05 11:36:16;;;;;;;3.17;0.68;;;21.10;90.40;;;;;;5056956;28;25077;-72
2022/08/05 11:38:42;;;;;;;1.73;0.57;;;21.60;77.10;;;;;;5062244;28;25086;-71
2022/08/05 11:41:17;;;;;;;1.75;0.40;;;22.20;57.60;;;;;;5055508;28;25080;-74
2022/08/05 11:43:51;;;;;;;0.47;0.45;;;22.30;40.30;;;;;;5063708;28;25069;-72
2022/08/05 11:46:17;;;;;;;1.10;0.50;;;21.80;19.60;;;;;;5057450;28;25086;-72
2022/08/05 11:48:43;;;;;;;1.40;0.40;;;22.00;26.70;;;;;;5060820;28;25093;-73
2022/08/05 11:51:09;;;;;;;4.50;0.70;;;22.30;6.10;;;;;;5053061;28;25076;-73
2022/08/05 11:53:35;;;;;;;1.98;0.60;;;22.30;1.00;;;;;;5051616;28;25068;-72
2022/08/05 11:56:02;;;;;;;5.95;0.90;;;21.70;2.70;;;;;;5050725;28;25056;-72
2022/08/05 11:58:38;;;;;;;2.30;0.50;;;21.70;25.80;;;;;;5059689;28;25072;-75
2022/08/05 12:01:05;;;;;;;1.50;0.50;;;21.70;16.60;;;;;;5055948;28;25065;-72
2022/08/05 12:03:40;;;;;;;3.30;0.55;;;21.70;28.60;;;;;;5055780;28;25104;-74
2022/08/05 12:06:07;;;;;;;2.10;0.65;;;22.30;31.40;;;;;;5054541;28;25064;-73
2022/08/05 12:08:33;;;;;;;2.35;0.90;;;22.50;17.80;;;;;;5065329;28;25144;-72
2022/08/05 12:11:01;;;;;;;3.35;0.63;;;22.30;17.90;;;;;;5057640;28;25077;-72
2022/08/05 12:13:27;;;;;;;3.83;0.60;;;22.30;32.20;;;;;;5063779;28;25090;-74
2022/08/05 12:15:52;;;;;;;2.28;0.70;;;22.60;13.10;;;;;;5060345;28;25123;-72
2022/08/05 12:18:18;;;;;;;3.25;0.57;;;22.80;22.80;;;;;;5065414;28;25087;-73
2022/08/05 12:20:44;;;;;;;1.30;0.70;;;22.60;28.40;;;;;;5063237;28;25089;-73
2022/08/05 12:23:10;;;;;;;0.73;0.60;;;22.50;41.50;;;;;;5061958;28;25102;-72
2022/08/05 12:25:52;;;;;;;2.08;0.95;;;22.40;45.70;;;;;;5064850;28;25119;-72
2022/08/05 12:28:32;;;;;;;5.20;0.60;;;22.80;59.80;;;;;;5064573;28;25089;-71
2022/08/05 12:30:58;;;;;;;0.88;0.50;;;23.00;58.30;;;;;;5059137;28;25068;-72
2022/08/05 12:33:24;;;;;;;2.88;0.68;;;22.80;72.00;;;;;;5060639;28;25072;-72
2022/08/05 12:35:50;;;;;;;0.98;0.60;;;23.40;67.30;;;;;;5051320;28;25081;-72
2022/08/05 12:38:16;;;;;;;2.65;0.38;;;23.20;67.80;;;;;;5041526;28;25174;-72
2022/08/05 12:40:41;;;;;;;1.85;0.52;;;23.00;75.00;;;;;;5040792;28;25014;-72
2022/08/05 12:43:07;;;;;;;2.10;0.60;;;23.60;62.60;;;;;;5043091;28;25049;-73
2022/08/05 12:45:33;;;;;;;2.05;0.65;;;23.00;67.40;;;;;;5046964;28;25099;-71
2022/08/05 12:47:58;;;;;;;2.85;0.80;;;22.40;72.40;;;;;;5046032;28;25067;-72
2022/08/05 12:50:24;;;;;;;0.93;0.40;;;22.30;84.10;;;;;;5047356;28;25085;-73
2022/08/05 12:53:00;;;;;;;2.58;0.70;;;22.30;90.10;;;;;;5046937;28;25190;-72
2022/08/05 12:55:27;;;;;;;3.47;0.50;;;21.80;85.90;;;;;;5032021;28;25095;-73